Česky Dansk Deutsch English Español Suomi Français Magyar Italiano Nederlands norsk Polski Português svenska Türkçe

 

Het Weer

Katowice (Polen)

09:30, 23 augustus 2016 (GMT)

NWNNE
WE
SWSSE
Home            
Katowice Krakow Ostrava / Mosnov Dolny Hricov Holesov Poprad / Tatry Prievidza Sliac Kunovice Sliac Wroclaw Ii Piestany Piestany Brno / Turany Rzeszow-Jasionka Lucenec Nitra Kosice Kosice, Barca Warszawa-Okecie Kamenica Nad Cirochou Bratislava Ivanka Miskolc

Om een weerknop op uw website of weblog te plaatsen, copieer onderstaande code en plak die in uw pagina. In het eerste vakje staat HTML-code, in het tweede vakje UBB-code.


Add to Google

Details

Wind speed:2 bf, 5 kn, 2.6 m/s, 5.8 miles/h, 9.3 km/h
Wind direction:SW, 230° - N, 360°
Visibility:Greater than 10000 m, 10 km, 32800 ft, 6.2 miles
Clouds:Aufgelockert bewölkt at 3200 ft, 975 m
Temperature:20°C, 68°F
Dew-point:12°C, 54°F
Atmospheric pressure:1027 hPa, 770.3 mmHg, 30.33 inHg, 1.014 atm
Relative humidity:60.0 %
METAR:EPKT 230930Z 28005KT 230V360 9999 SCT032 20/12 Q1027

Snelkoppelingen

Actuele weersinformatie van de hele wereld. Voeg locaties toe met het plus (+) symbool. Deze snelkoppelingen kunnen worden toegevoegd aan Google.

Lid van de Technetium groep

website free tracking
StatCounter NetStat W3C Validator

01-10-2022 11:06:37
astro.technetium.be money.technetium.be phote.technetium.be tafeltennistafel.technetium.be www.ligfiets.net